sensor_id;sensor_type;location;lat;lon;timestamp;P1;durP1;ratioP1;P2;durP2;ratioP2
43048;SDS011;28673;44.412;11.918;2023-03-01T00:00:50;56.38;;;24.95;;
43048;SDS011;28673;44.412;11.918;2023-03-01T00:03:15;51.88;;;25.60;;
43048;SDS011;28673;44.412;11.918;2023-03-01T00:05:50;45.15;;;24.40;;
43048;SDS011;28673;44.412;11.918;2023-03-01T00:08:16;46.58;;;22.50;;
43048;SDS011;28673;44.412;11.918;2023-03-01T00:10:42;50.20;;;23.92;;
43048;SDS011;28673;44.412;11.918;2023-03-01T00:13:08;37.22;;;23.20;;
43048;SDS011;28673;44.412;11.918;2023-03-01T00:15:37;37.53;;;21.80;;
43048;SDS011;28673;44.412;11.918;2023-03-01T00:18:04;47.38;;;23.42;;
43048;SDS011;28673;44.412;11.918;2023-03-01T00:20:30;46.28;;;23.20;;
43048;SDS011;28673;44.412;11.918;2023-03-01T00:22:55;44.53;;;21.95;;
43048;SDS011;28673;44.412;11.918;2023-03-01T00:25:21;39.92;;;22.70;;
43048;SDS011;28673;44.412;11.918;2023-03-01T00:27:47;43.50;;;23.65;;
43048;SDS011;28673;44.412;11.918;2023-03-01T00:30:14;39.22;;;22.13;;
43048;SDS011;28673;44.412;11.918;2023-03-01T00:32:40;39.95;;;22.27;;
43048;SDS011;28673;44.412;11.918;2023-03-01T00:35:06;44.30;;;22.13;;
43048;SDS011;28673;44.412;11.918;2023-03-01T00:37:32;40.30;;;21.63;;
43048;SDS011;28673;44.412;11.918;2023-03-01T00:39:58;41.90;;;20.95;;
43048;SDS011;28673;44.412;11.918;2023-03-01T00:42:24;41.60;;;22.30;;
43048;SDS011;28673;44.412;11.918;2023-03-01T00:44:49;40.40;;;21.08;;
43048;SDS011;28673;44.412;11.918;2023-03-01T00:47:15;35.13;;;20.50;;
43048;SDS011;28673;44.412;11.918;2023-03-01T00:49:41;41.97;;;21.33;;
43048;SDS011;28673;44.412;11.918;2023-03-01T00:52:07;38.00;;;20.95;;
43048;SDS011;28673;44.412;11.918;2023-03-01T00:54:33;43.10;;;21.98;;
43048;SDS011;28673;44.412;11.918;2023-03-01T00:56:59;39.55;;;22.85;;
43048;SDS011;28673;44.412;11.918;2023-03-01T00:59:24;42.53;;;21.67;;
43048;SDS011;28673;44.412;11.918;2023-03-01T01:01:50;50.05;;;23.05;;
43048;SDS011;28673;44.412;11.918;2023-03-01T01:04:16;42.15;;;20.95;;
43048;SDS011;28673;44.412;11.918;2023-03-01T01:06:43;45.40;;;21.98;;
43048;SDS011;28673;44.412;11.918;2023-03-01T01:09:11;45.47;;;21.48;;
43048;SDS011;28673;44.412;11.918;2023-03-01T01:11:43;46.35;;;24.73;;
43048;SDS011;28673;44.412;11.918;2023-03-01T01:14:10;46.55;;;22.00;;
43048;SDS011;28673;44.412;11.918;2023-03-01T01:16:36;51.08;;;21.95;;
43048;SDS011;28673;44.412;11.918;2023-03-01T01:19:02;44.60;;;23.15;;
43048;SDS011;28673;44.412;11.918;2023-03-01T01:21:28;44.05;;;21.48;;
43048;SDS011;28673;44.412;11.918;2023-03-01T01:23:55;31.83;;;20.90;;
43048;SDS011;28673;44.412;11.918;2023-03-01T01:26:28;40.00;;;21.35;;
43048;SDS011;28673;44.412;11.918;2023-03-01T01:28:56;39.83;;;22.33;;
43048;SDS011;28673;44.412;11.918;2023-03-01T01:31:24;36.30;;;20.50;;
43048;SDS011;28673;44.412;11.918;2023-03-01T01:33:51;42.83;;;20.35;;
43048;SDS011;28673;44.412;11.918;2023-03-01T01:36:18;40.67;;;21.80;;
43048;SDS011;28673;44.412;11.918;2023-03-01T01:38:44;40.85;;;21.10;;
43048;SDS011;28673;44.412;11.918;2023-03-01T01:41:10;36.80;;;20.48;;
43048;SDS011;28673;44.412;11.918;2023-03-01T01:43:38;37.00;;;19.63;;
43048;SDS011;28673;44.412;11.918;2023-03-01T01:48:54;42.00;;;19.90;;
43048;SDS011;28673;44.412;11.918;2023-03-01T01:51:25;50.45;;;21.38;;
43048;SDS011;28673;44.412;11.918;2023-03-01T01:54:06;40.00;;;19.63;;
43048;SDS011;28673;44.412;11.918;2023-03-01T01:57:03;42.00;;;21.02;;
43048;SDS011;28673;44.412;11.918;2023-03-01T01:59:34;42.03;;;19.88;;
43048;SDS011;28673;44.412;11.918;2023-03-01T02:02:02;34.72;;;19.05;;
43048;SDS011;28673;44.412;11.918;2023-03-01T02:04:29;37.33;;;18.25;;
43048;SDS011;28673;44.412;11.918;2023-03-01T02:06:58;42.15;;;19.08;;
43048;SDS011;28673;44.412;11.918;2023-03-01T02:09:25;38.50;;;19.20;;
43048;SDS011;28673;44.412;11.918;2023-03-01T02:11:53;39.78;;;20.00;;
43048;SDS011;28673;44.412;11.918;2023-03-01T02:14:19;36.45;;;20.05;;
43048;SDS011;28673;44.412;11.918;2023-03-01T02:16:45;40.50;;;19.92;;
43048;SDS011;28673;44.412;11.918;2023-03-01T02:19:16;33.70;;;18.67;;
43048;SDS011;28673;44.412;11.918;2023-03-01T02:21:57;37.38;;;20.25;;
43048;SDS011;28673;44.412;11.918;2023-03-01T02:24:48;32.65;;;18.75;;
43048;SDS011;28673;44.412;11.918;2023-03-01T02:27:22;34.60;;;18.23;;
43048;SDS011;28673;44.412;11.918;2023-03-01T02:29:51;35.35;;;19.70;;
43048;SDS011;28673;44.412;11.918;2023-03-01T02:32:17;33.28;;;18.77;;
43048;SDS011;28673;44.412;11.918;2023-03-01T02:34:53;38.95;;;19.25;;
43048;SDS011;28673;44.412;11.918;2023-03-01T02:37:20;41.90;;;18.77;;
43048;SDS011;28673;44.412;11.918;2023-03-01T02:39:59;39.58;;;18.35;;
43048;SDS011;28673;44.412;11.918;2023-03-01T02:42:31;36.53;;;20.60;;
43048;SDS011;28673;44.412;11.918;2023-03-01T02:45:02;31.15;;;19.33;;
43048;SDS011;28673;44.412;11.918;2023-03-01T02:47:28;40.20;;;22.60;;
43048;SDS011;28673;44.412;11.918;2023-03-01T02:49:54;32.60;;;17.92;;
43048;SDS011;28673;44.412;11.918;2023-03-01T03:00:05;38.63;;;19.58;;
43048;SDS011;28673;44.412;11.918;2023-03-01T03:02:34;43.45;;;20.02;;
43048;SDS011;28673;44.412;11.918;2023-03-01T03:05:08;38.45;;;19.05;;
43048;SDS011;28673;44.412;11.918;2023-03-01T03:07:56;44.47;;;20.00;;
43048;SDS011;28673;44.412;11.918;2023-03-01T03:10:25;31.73;;;19.13;;
43048;SDS011;28673;44.412;11.918;2023-03-01T03:12:55;39.33;;;20.10;;
43048;SDS011;28673;44.412;11.918;2023-03-01T03:15:22;31.02;;;20.05;;
43048;SDS011;28673;44.412;11.918;2023-03-01T03:17:48;38.45;;;20.15;;
43048;SDS011;28673;44.412;11.918;2023-03-01T03:20:16;42.55;;;20.50;;
43048;SDS011;28673;44.412;11.918;2023-03-01T03:22:48;42.85;;;21.00;;
43048;SDS011;28673;44.412;11.918;2023-03-01T03:25:16;37.08;;;20.52;;
43048;SDS011;28673;44.412;11.918;2023-03-01T03:27:43;41.90;;;21.75;;
43048;SDS011;28673;44.412;11.918;2023-03-01T03:30:12;37.40;;;21.00;;
43048;SDS011;28673;44.412;11.918;2023-03-01T03:32:41;37.42;;;20.10;;
43048;SDS011;28673;44.412;11.918;2023-03-01T03:35:08;43.40;;;19.73;;
43048;SDS011;28673;44.412;11.918;2023-03-01T03:37:38;38.45;;;20.48;;
43048;SDS011;28673;44.412;11.918;2023-03-01T03:40:23;38.28;;;20.73;;
43048;SDS011;28673;44.412;11.918;2023-03-01T03:42:49;37.75;;;20.02;;
43048;SDS011;28673;44.412;11.918;2023-03-01T03:45:15;33.35;;;19.40;;
43048;SDS011;28673;44.412;11.918;2023-03-01T03:47:42;42.17;;;20.27;;
43048;SDS011;28673;44.412;11.918;2023-03-01T03:50:12;34.72;;;18.40;;
43048;SDS011;28673;44.412;11.918;2023-03-01T03:55:06;39.90;;;19.33;;
43048;SDS011;28673;44.412;11.918;2023-03-01T03:57:42;36.42;;;18.92;;
43048;SDS011;28673;44.412;11.918;2023-03-01T04:00:10;37.20;;;17.85;;
43048;SDS011;28673;44.412;11.918;2023-03-01T04:02:40;39.97;;;19.23;;
43048;SDS011;28673;44.412;11.918;2023-03-01T04:05:07;35.17;;;17.88;;
43048;SDS011;28673;44.412;11.918;2023-03-01T04:07:34;35.00;;;18.85;;
43048;SDS011;28673;44.412;11.918;2023-03-01T04:10:02;38.17;;;20.58;;
43048;SDS011;28673;44.412;11.918;2023-03-01T04:12:33;35.92;;;19.50;;
43048;SDS011;28673;44.412;11.918;2023-03-01T04:15:00;35.85;;;19.10;;
43048;SDS011;28673;44.412;11.918;2023-03-01T04:17:26;41.05;;;19.95;;
43048;SDS011;28673;44.412;11.918;2023-03-01T04:19:52;36.58;;;20.33;;
43048;SDS011;28673;44.412;11.918;2023-03-01T04:22:18;33.80;;;19.73;;
43048;SDS011;28673;44.412;11.918;2023-03-01T04:24:44;39.22;;;20.00;;
43048;SDS011;28673;44.412;11.918;2023-03-01T04:27:11;43.35;;;19.83;;
43048;SDS011;28673;44.412;11.918;2023-03-01T04:29:37;35.15;;;20.55;;
43048;SDS011;28673;44.412;11.918;2023-03-01T04:32:03;33.22;;;18.58;;
43048;SDS011;28673;44.412;11.918;2023-03-01T04:34:29;38.58;;;19.92;;
43048;SDS011;28673;44.412;11.918;2023-03-01T04:36:55;33.15;;;19.58;;
43048;SDS011;28673;44.412;11.918;2023-03-01T04:39:21;35.13;;;20.20;;
43048;SDS011;28673;44.412;11.918;2023-03-01T04:41:47;32.38;;;19.17;;
43048;SDS011;28673;44.412;11.918;2023-03-01T04:44:13;34.40;;;18.83;;
43048;SDS011;28673;44.412;11.918;2023-03-01T04:46:39;41.05;;;20.30;;
43048;SDS011;28673;44.412;11.918;2023-03-01T04:49:05;37.85;;;20.55;;
43048;SDS011;28673;44.412;11.918;2023-03-01T04:51:31;36.83;;;20.92;;
43048;SDS011;28673;44.412;11.918;2023-03-01T04:53:57;37.47;;;18.67;;
43048;SDS011;28673;44.412;11.918;2023-03-01T04:56:23;35.60;;;19.85;;
43048;SDS011;28673;44.412;11.918;2023-03-01T04:58:49;56.38;;;20.88;;
43048;SDS011;28673;44.412;11.918;2023-03-01T05:01:19;34.97;;;21.15;;
43048;SDS011;28673;44.412;11.918;2023-03-01T05:03:46;42.63;;;22.15;;
43048;SDS011;28673;44.412;11.918;2023-03-01T05:06:14;32.90;;;18.90;;
43048;SDS011;28673;44.412;11.918;2023-03-01T05:08:42;43.58;;;23.08;;
43048;SDS011;28673;44.412;11.918;2023-03-01T05:11:08;35.45;;;20.10;;
43048;SDS011;28673;44.412;11.918;2023-03-01T05:13:35;33.63;;;20.25;;
43048;SDS011;28673;44.412;11.918;2023-03-01T05:16:02;36.35;;;20.20;;
43048;SDS011;28673;44.412;11.918;2023-03-01T05:18:30;34.97;;;20.40;;
43048;SDS011;28673;44.412;11.918;2023-03-01T05:21:02;34.80;;;20.67;;
43048;SDS011;28673;44.412;11.918;2023-03-01T05:23:31;37.55;;;22.10;;
43048;SDS011;28673;44.412;11.918;2023-03-01T05:25:58;37.40;;;20.55;;
43048;SDS011;28673;44.412;11.918;2023-03-01T05:28:25;42.78;;;21.05;;
43048;SDS011;28673;44.412;11.918;2023-03-01T05:30:53;44.63;;;22.73;;
43048;SDS011;28673;44.412;11.918;2023-03-01T05:33:19;36.38;;;20.17;;
43048;SDS011;28673;44.412;11.918;2023-03-01T05:35:47;39.60;;;21.23;;
43048;SDS011;28673;44.412;11.918;2023-03-01T05:38:14;35.53;;;22.15;;
43048;SDS011;28673;44.412;11.918;2023-03-01T05:40:42;39.70;;;20.80;;
43048;SDS011;28673;44.412;11.918;2023-03-01T05:43:09;35.63;;;19.67;;
43048;SDS011;28673;44.412;11.918;2023-03-01T05:45:36;40.05;;;21.08;;
43048;SDS011;28673;44.412;11.918;2023-03-01T05:48:03;37.78;;;20.33;;
43048;SDS011;28673;44.412;11.918;2023-03-01T05:50:34;35.88;;;21.45;;
43048;SDS011;28673;44.412;11.918;2023-03-01T05:55:32;36.30;;;20.00;;
43048;SDS011;28673;44.412;11.918;2023-03-01T05:58:00;34.40;;;19.45;;
43048;SDS011;28673;44.412;11.918;2023-03-01T06:00:27;36.35;;;19.63;;
43048;SDS011;28673;44.412;11.918;2023-03-01T06:02:54;35.90;;;21.10;;
43048;SDS011;28673;44.412;11.918;2023-03-01T06:05:20;34.40;;;20.00;;
43048;SDS011;28673;44.412;11.918;2023-03-01T06:07:46;40.95;;;19.75;;
43048;SDS011;28673;44.412;11.918;2023-03-01T06:10:12;37.80;;;19.60;;
43048;SDS011;28673;44.412;11.918;2023-03-01T06:12:40;37.58;;;20.83;;
43048;SDS011;28673;44.412;11.918;2023-03-01T06:15:07;32.92;;;17.90;;
43048;SDS011;28673;44.412;11.918;2023-03-01T06:17:35;39.65;;;23.08;;
43048;SDS011;28673;44.412;11.918;2023-03-01T06:20:09;35.88;;;19.80;;
43048;SDS011;28673;44.412;11.918;2023-03-01T06:22:40;37.08;;;18.95;;
43048;SDS011;28673;44.412;11.918;2023-03-01T06:25:07;32.17;;;18.70;;
43048;SDS011;28673;44.412;11.918;2023-03-01T06:27:34;37.10;;;20.17;;
43048;SDS011;28673;44.412;11.918;2023-03-01T06:30:00;33.15;;;19.05;;
43048;SDS011;28673;44.412;11.918;2023-03-01T06:32:26;36.92;;;19.63;;
43048;SDS011;28673;44.412;11.918;2023-03-01T06:34:52;34.75;;;20.30;;
43048;SDS011;28673;44.412;11.918;2023-03-01T06:37:18;38.75;;;20.92;;
43048;SDS011;28673;44.412;11.918;2023-03-01T06:39:44;41.13;;;19.80;;
43048;SDS011;28673;44.412;11.918;2023-03-01T06:42:10;35.72;;;20.23;;
43048;SDS011;28673;44.412;11.918;2023-03-01T06:44:36;37.60;;;20.85;;
43048;SDS011;28673;44.412;11.918;2023-03-01T06:47:02;31.42;;;18.77;;
43048;SDS011;28673;44.412;11.918;2023-03-01T06:49:29;30.00;;;17.27;;
43048;SDS011;28673;44.412;11.918;2023-03-01T06:51:55;40.75;;;21.63;;
43048;SDS011;28673;44.412;11.918;2023-03-01T06:54:21;37.92;;;20.08;;
43048;SDS011;28673;44.412;11.918;2023-03-01T06:56:48;41.03;;;20.58;;
43048;SDS011;28673;44.412;11.918;2023-03-01T06:59:15;37.88;;;20.30;;
43048;SDS011;28673;44.412;11.918;2023-03-01T07:01:41;36.05;;;20.48;;
43048;SDS011;28673;44.412;11.918;2023-03-01T07:04:08;47.08;;;20.55;;
43048;SDS011;28673;44.412;11.918;2023-03-01T07:06:34;39.72;;;20.88;;
43048;SDS011;28673;44.412;11.918;2023-03-01T07:09:00;44.92;;;22.98;;
43048;SDS011;28673;44.412;11.918;2023-03-01T07:11:26;38.53;;;20.27;;
43048;SDS011;28673;44.412;11.918;2023-03-01T07:13:52;39.28;;;21.58;;
43048;SDS011;28673;44.412;11.918;2023-03-01T07:16:18;33.03;;;19.80;;
43048;SDS011;28673;44.412;11.918;2023-03-01T07:18:45;32.28;;;19.10;;
43048;SDS011;28673;44.412;11.918;2023-03-01T07:21:12;39.72;;;19.98;;
43048;SDS011;28673;44.412;11.918;2023-03-01T07:23:39;38.03;;;20.55;;
43048;SDS011;28673;44.412;11.918;2023-03-01T07:26:05;40.22;;;20.10;;
43048;SDS011;28673;44.412;11.918;2023-03-01T07:28:32;31.30;;;19.40;;
43048;SDS011;28673;44.412;11.918;2023-03-01T07:31:03;41.00;;;23.05;;
43048;SDS011;28673;44.412;11.918;2023-03-01T07:33:29;32.90;;;18.63;;
43048;SDS011;28673;44.412;11.918;2023-03-01T07:35:56;39.60;;;21.17;;
43048;SDS011;28673;44.412;11.918;2023-03-01T07:38:23;36.60;;;20.10;;
43048;SDS011;28673;44.412;11.918;2023-03-01T07:40:49;36.97;;;21.27;;
43048;SDS011;28673;44.412;11.918;2023-03-01T07:43:15;44.17;;;20.67;;
43048;SDS011;28673;44.412;11.918;2023-03-01T07:45:44;38.78;;;19.35;;
43048;SDS011;28673;44.412;11.918;2023-03-01T07:48:10;39.35;;;20.17;;
43048;SDS011;28673;44.412;11.918;2023-03-01T07:50:36;36.75;;;19.05;;
43048;SDS011;28673;44.412;11.918;2023-03-01T07:53:01;37.25;;;19.50;;
43048;SDS011;28673;44.412;11.918;2023-03-01T07:55:28;36.95;;;20.42;;
43048;SDS011;28673;44.412;11.918;2023-03-01T07:57:53;38.85;;;21.20;;
43048;SDS011;28673;44.412;11.918;2023-03-01T08:00:19;37.83;;;19.00;;
43048;SDS011;28673;44.412;11.918;2023-03-01T08:02:45;37.72;;;20.27;;
43048;SDS011;28673;44.412;11.918;2023-03-01T08:05:11;36.80;;;21.55;;
43048;SDS011;28673;44.412;11.918;2023-03-01T08:07:37;42.50;;;22.38;;
43048;SDS011;28673;44.412;11.918;2023-03-01T08:10:03;36.60;;;21.05;;
43048;SDS011;28673;44.412;11.918;2023-03-01T08:12:29;38.92;;;20.17;;
43048;SDS011;28673;44.412;11.918;2023-03-01T08:14:55;41.38;;;21.63;;
43048;SDS011;28673;44.412;11.918;2023-03-01T08:17:25;37.80;;;20.08;;
43048;SDS011;28673;44.412;11.918;2023-03-01T08:19:50;35.90;;;18.05;;
43048;SDS011;28673;44.412;11.918;2023-03-01T08:22:16;33.03;;;19.63;;
43048;SDS011;28673;44.412;11.918;2023-03-01T08:24:42;39.45;;;21.85;;
43048;SDS011;28673;44.412;11.918;2023-03-01T08:27:08;41.55;;;21.70;;
43048;SDS011;28673;44.412;11.918;2023-03-01T08:29:34;38.45;;;21.02;;
43048;SDS011;28673;44.412;11.918;2023-03-01T08:32:00;33.80;;;19.80;;
43048;SDS011;28673;44.412;11.918;2023-03-01T08:34:26;36.90;;;21.70;;
43048;SDS011;28673;44.412;11.918;2023-03-01T08:36:52;40.70;;;21.90;;
43048;SDS011;28673;44.412;11.918;2023-03-01T08:39:18;41.50;;;20.73;;
43048;SDS011;28673;44.412;11.918;2023-03-01T08:41:49;44.58;;;21.80;;
43048;SDS011;28673;44.412;11.918;2023-03-01T08:44:15;42.50;;;22.33;;
43048;SDS011;28673;44.412;11.918;2023-03-01T08:46:46;39.25;;;21.85;;
43048;SDS011;28673;44.412;11.918;2023-03-01T08:49:13;32.88;;;17.27;;
43048;SDS011;28673;44.412;11.918;2023-03-01T08:51:41;40.92;;;22.05;;
43048;SDS011;28673;44.412;11.918;2023-03-01T08:54:12;39.38;;;20.98;;
43048;SDS011;28673;44.412;11.918;2023-03-01T08:56:43;37.67;;;20.38;;
43048;SDS011;28673;44.412;11.918;2023-03-01T08:59:10;39.08;;;20.90;;
43048;SDS011;28673;44.412;11.918;2023-03-01T09:01:36;54.45;;;20.98;;
43048;SDS011;28673;44.412;11.918;2023-03-01T09:04:02;38.33;;;20.92;;
43048;SDS011;28673;44.412;11.918;2023-03-01T09:06:33;42.92;;;20.75;;
43048;SDS011;28673;44.412;11.918;2023-03-01T09:08:59;36.33;;;21.27;;
43048;SDS011;28673;44.412;11.918;2023-03-01T09:11:27;43.58;;;21.75;;
43048;SDS011;28673;44.412;11.918;2023-03-01T09:13:53;45.97;;;21.98;;
43048;SDS011;28673;44.412;11.918;2023-03-01T09:16:21;42.38;;;21.40;;
43048;SDS011;28673;44.412;11.918;2023-03-01T09:18:51;43.70;;;21.88;;
43048;SDS011;28673;44.412;11.918;2023-03-01T09:21:18;43.13;;;23.48;;
43048;SDS011;28673;44.412;11.918;2023-03-01T09:23:46;37.17;;;21.38;;
43048;SDS011;28673;44.412;11.918;2023-03-01T09:26:14;40.78;;;23.48;;
43048;SDS011;28673;44.412;11.918;2023-03-01T09:28:45;35.95;;;21.77;;
43048;SDS011;28673;44.412;11.918;2023-03-01T09:31:11;39.47;;;19.75;;
43048;SDS011;28673;44.412;11.918;2023-03-01T09:33:38;44.78;;;23.50;;
43048;SDS011;28673;44.412;11.918;2023-03-01T09:36:06;48.53;;;24.33;;
43048;SDS011;28673;44.412;11.918;2023-03-01T09:38:35;47.92;;;25.30;;
43048;SDS011;28673;44.412;11.918;2023-03-01T09:41:01;40.65;;;22.88;;
43048;SDS011;28673;44.412;11.918;2023-03-01T09:46:13;42.50;;;22.17;;
43048;SDS011;28673;44.412;11.918;2023-03-01T09:48:48;40.47;;;22.88;;
43048;SDS011;28673;44.412;11.918;2023-03-01T09:51:29;46.78;;;26.67;;
43048;SDS011;28673;44.412;11.918;2023-03-01T09:53:57;46.10;;;25.70;;
43048;SDS011;28673;44.412;11.918;2023-03-01T09:56:30;51.97;;;24.23;;
43048;SDS011;28673;44.412;11.918;2023-03-01T10:02:26;40.63;;;22.98;;
43048;SDS011;28673;44.412;11.918;2023-03-01T10:04:46;41.95;;;23.05;;
43048;SDS011;28673;44.412;11.918;2023-03-01T10:10:06;44.13;;;23.23;;
43048;SDS011;28673;44.412;11.918;2023-03-01T10:12:37;42.40;;;25.65;;
43048;SDS011;28673;44.412;11.918;2023-03-01T10:15:19;47.35;;;21.92;;
43048;SDS011;28673;44.412;11.918;2023-03-01T10:18:09;37.28;;;20.77;;
43048;SDS011;28673;44.412;11.918;2023-03-01T10:20:43;35.33;;;21.02;;
43048;SDS011;28673;44.412;11.918;2023-03-01T10:23:11;46.03;;;23.55;;
43048;SDS011;28673;44.412;11.918;2023-03-01T10:28:22;47.47;;;22.85;;
43048;SDS011;28673;44.412;11.918;2023-03-01T10:30:50;46.20;;;23.48;;
43048;SDS011;28673;44.412;11.918;2023-03-01T10:33:22;42.40;;;23.00;;
43048;SDS011;28673;44.412;11.918;2023-03-01T10:35:51;41.00;;;23.77;;
43048;SDS011;28673;44.412;11.918;2023-03-01T10:38:18;40.80;;;23.08;;
43048;SDS011;28673;44.412;11.918;2023-03-01T10:40:55;45.53;;;23.67;;
43048;SDS011;28673;44.412;11.918;2023-03-01T10:43:30;44.60;;;25.10;;
43048;SDS011;28673;44.412;11.918;2023-03-01T10:49:16;46.38;;;23.33;;
43048;SDS011;28673;44.412;11.918;2023-03-01T10:51:45;39.15;;;23.25;;
43048;SDS011;28673;44.412;11.918;2023-03-01T10:54:28;41.75;;;22.88;;
43048;SDS011;28673;44.412;11.918;2023-03-01T10:56:57;43.63;;;22.20;;
43048;SDS011;28673;44.412;11.918;2023-03-01T10:59:27;45.03;;;23.83;;
43048;SDS011;28673;44.412;11.918;2023-03-01T11:08:03;46.90;;;24.17;;
43048;SDS011;28673;44.412;11.918;2023-03-01T11:10:31;44.13;;;22.75;;
43048;SDS011;28673;44.412;11.918;2023-03-01T11:13:31;46.03;;;24.25;;
43048;SDS011;28673;44.412;11.918;2023-03-01T11:16:24;44.53;;;23.65;;
43048;SDS011;28673;44.412;11.918;2023-03-01T11:18:56;38.45;;;22.73;;
43048;SDS011;28673;44.412;11.918;2023-03-01T11:21:24;39.85;;;22.08;;
43048;SDS011;28673;44.412;11.918;2023-03-01T11:23:52;45.45;;;24.98;;
43048;SDS011;28673;44.412;11.918;2023-03-01T11:26:18;42.20;;;22.02;;
43048;SDS011;28673;44.412;11.918;2023-03-01T11:28:50;41.38;;;23.52;;
43048;SDS011;28673;44.412;11.918;2023-03-01T11:31:21;46.05;;;22.48;;
43048;SDS011;28673;44.412;11.918;2023-03-01T11:33:50;47.55;;;23.23;;
43048;SDS011;28673;44.412;11.918;2023-03-01T11:36:35;45.13;;;22.60;;
43048;SDS011;28673;44.412;11.918;2023-03-01T11:42:00;36.42;;;21.15;;
43048;SDS011;28673;44.412;11.918;2023-03-01T11:44:37;41.65;;;21.52;;
43048;SDS011;28673;44.412;11.918;2023-03-01T12:05:49;40.17;;;21.10;;
43048;SDS011;28673;44.412;11.918;2023-03-01T12:25:31;40.35;;;21.17;;
43048;SDS011;28673;44.412;11.918;2023-03-01T12:50:05;39.95;;;21.08;;
43048;SDS011;28673;44.412;11.918;2023-03-01T12:52:44;45.92;;;22.63;;
43048;SDS011;28673;44.412;11.918;2023-03-01T12:57:57;46.67;;;22.50;;
43048;SDS011;28673;44.412;11.918;2023-03-01T13:06:32;37.08;;;20.45;;
43048;SDS011;28673;44.412;11.918;2023-03-01T13:09:18;50.92;;;22.60;;
43048;SDS011;28673;44.412;11.918;2023-03-01T13:11:56;40.05;;;20.48;;
43048;SDS011;28673;44.412;11.918;2023-03-01T13:16:51;34.95;;;20.13;;
43048;SDS011;28673;44.412;11.918;2023-03-01T13:19:22;32.25;;;20.52;;
43048;SDS011;28673;44.412;11.918;2023-03-01T13:21:54;39.75;;;22.05;;
43048;SDS011;28673;44.412;11.918;2023-03-01T13:24:40;39.20;;;19.38;;
43048;SDS011;28673;44.412;11.918;2023-03-01T13:29:49;35.05;;;19.10;;
43048;SDS011;28673;44.412;11.918;2023-03-01T13:32:24;37.53;;;17.50;;
43048;SDS011;28673;44.412;11.918;2023-03-01T13:35:03;28.30;;;15.73;;
43048;SDS011;28673;44.412;11.918;2023-03-01T13:37:35;32.75;;;16.50;;
43048;SDS011;28673;44.412;11.918;2023-03-01T13:40:04;30.20;;;17.42;;
43048;SDS011;28673;44.412;11.918;2023-03-01T13:42:54;28.63;;;16.42;;
43048;SDS011;28673;44.412;11.918;2023-03-01T13:47:55;36.00;;;18.10;;
43048;SDS011;28673;44.412;11.918;2023-03-01T13:50:28;29.10;;;16.23;;
43048;SDS011;28673;44.412;11.918;2023-03-01T13:53:05;30.08;;;16.08;;
43048;SDS011;28673;44.412;11.918;2023-03-01T13:55:42;29.60;;;16.45;;
43048;SDS011;28673;44.412;11.918;2023-03-01T13:58:24;31.45;;;16.75;;
43048;SDS011;28673;44.412;11.918;2023-03-01T14:00:56;30.27;;;16.10;;
43048;SDS011;28673;44.412;11.918;2023-03-01T14:03:27;32.42;;;16.35;;
43048;SDS011;28673;44.412;11.918;2023-03-01T14:06:03;28.40;;;16.88;;
43048;SDS011;28673;44.412;11.918;2023-03-01T14:08:35;28.23;;;15.80;;
43048;SDS011;28673;44.412;11.918;2023-03-01T14:19:38;25.10;;;14.85;;
43048;SDS011;28673;44.412;11.918;2023-03-01T14:24:49;23.60;;;14.40;;
43048;SDS011;28673;44.412;11.918;2023-03-01T14:27:16;26.15;;;14.50;;
43048;SDS011;28673;44.412;11.918;2023-03-01T14:29:42;27.77;;;15.15;;
43048;SDS011;28673;44.412;11.918;2023-03-01T14:32:10;23.92;;;15.50;;
43048;SDS011;28673;44.412;11.918;2023-03-01T14:34:44;27.63;;;15.77;;
43048;SDS011;28673;44.412;11.918;2023-03-01T14:39:58;25.48;;;15.77;;
43048;SDS011;28673;44.412;11.918;2023-03-01T14:42:27;28.42;;;16.17;;
43048;SDS011;28673;44.412;11.918;2023-03-01T14:44:56;22.85;;;14.80;;
43048;SDS011;28673;44.412;11.918;2023-03-01T14:47:33;24.27;;;14.68;;
43048;SDS011;28673;44.412;11.918;2023-03-01T14:50:05;32.83;;;16.63;;
43048;SDS011;28673;44.412;11.918;2023-03-01T14:52:48;25.90;;;15.13;;
43048;SDS011;28673;44.412;11.918;2023-03-01T14:55:18;22.95;;;15.60;;
43048;SDS011;28673;44.412;11.918;2023-03-01T14:57:49;28.45;;;14.50;;
43048;SDS011;28673;44.412;11.918;2023-03-01T15:00:24;32.92;;;17.05;;
43048;SDS011;28673;44.412;11.918;2023-03-01T15:02:53;25.85;;;16.60;;
43048;SDS011;28673;44.412;11.918;2023-03-01T15:05:23;24.70;;;15.38;;
43048;SDS011;28673;44.412;11.918;2023-03-01T15:07:59;31.00;;;17.35;;
43048;SDS011;28673;44.412;11.918;2023-03-01T15:10:34;29.02;;;13.93;;
43048;SDS011;28673;44.412;11.918;2023-03-01T15:13:11;30.00;;;16.55;;
43048;SDS011;28673;44.412;11.918;2023-03-01T15:15:48;32.15;;;17.02;;
43048;SDS011;28673;44.412;11.918;2023-03-01T15:18:25;27.85;;;16.88;;
43048;SDS011;28673;44.412;11.918;2023-03-01T15:20:53;32.13;;;17.90;;
43048;SDS011;28673;44.412;11.918;2023-03-01T15:23:23;31.30;;;18.85;;
43048;SDS011;28673;44.412;11.918;2023-03-01T15:25:54;35.13;;;19.15;;
43048;SDS011;28673;44.412;11.918;2023-03-01T15:28:22;31.05;;;18.50;;
43048;SDS011;28673;44.412;11.918;2023-03-01T15:30:58;34.47;;;18.98;;
43048;SDS011;28673;44.412;11.918;2023-03-01T15:33:44;25.63;;;13.80;;
43048;SDS011;28673;44.412;11.918;2023-03-01T15:38:57;37.03;;;20.30;;
43048;SDS011;28673;44.412;11.918;2023-03-01T15:41:26;33.60;;;19.63;;
43048;SDS011;28673;44.412;11.918;2023-03-01T15:46:24;33.35;;;20.35;;
43048;SDS011;28673;44.412;11.918;2023-03-01T15:48:58;39.53;;;19.85;;
43048;SDS011;28673;44.412;11.918;2023-03-01T15:51:36;32.50;;;19.58;;
43048;SDS011;28673;44.412;11.918;2023-03-01T15:54:04;36.42;;;19.75;;
43048;SDS011;28673;44.412;11.918;2023-03-01T15:56:42;30.23;;;19.52;;
43048;SDS011;28673;44.412;11.918;2023-03-01T15:59:09;34.08;;;21.27;;
43048;SDS011;28673;44.412;11.918;2023-03-01T16:01:40;37.78;;;20.23;;
43048;SDS011;28673;44.412;11.918;2023-03-01T16:04:10;33.85;;;20.23;;
43048;SDS011;28673;44.412;11.918;2023-03-01T16:06:41;38.65;;;20.60;;
43048;SDS011;28673;44.412;11.918;2023-03-01T16:09:07;37.60;;;21.08;;
43048;SDS011;28673;44.412;11.918;2023-03-01T16:11:34;34.00;;;18.80;;
43048;SDS011;28673;44.412;11.918;2023-03-01T16:14:02;37.47;;;20.35;;
43048;SDS011;28673;44.412;11.918;2023-03-01T16:16:28;30.25;;;18.80;;
43048;SDS011;28673;44.412;11.918;2023-03-01T16:18:55;35.35;;;21.00;;
43048;SDS011;28673;44.412;11.918;2023-03-01T16:21:23;37.20;;;21.50;;
43048;SDS011;28673;44.412;11.918;2023-03-01T16:23:50;31.42;;;20.10;;
43048;SDS011;28673;44.412;11.918;2023-03-01T16:26:17;34.97;;;20.98;;
43048;SDS011;28673;44.412;11.918;2023-03-01T16:28:47;37.15;;;20.67;;
43048;SDS011;28673;44.412;11.918;2023-03-01T16:31:16;36.25;;;20.00;;
43048;SDS011;28673;44.412;11.918;2023-03-01T16:33:43;40.22;;;22.25;;